Time;durP1;ratioP1;P1;durP2;ratioP2;P2;SDS_P1;SDS_P2;PMS_P1;PMS_P2;Temp;Humidity;BMP_temperature;BMP_pressure;BME280_temperature;BME280_humidity;BME280_pressure;Samples;Min_cycle;Max_cycle;Signal;HPM_P1;HPM_P2
2022/12/10 00:01:50;;;;;;;51.70;28.50;;;1.20;77.10;;;;;;5117917;27;20062;-75
2022/12/10 00:04:16;;;;;;;49.30;26.33;;;1.20;77.10;;;;;;5117365;27;20030;-75
2022/12/10 00:06:43;;;;;;;52.13;29.73;;;1.20;77.10;;;;;;5103295;27;20039;-75
2022/12/10 00:09:13;;;;;;;47.07;25.43;;;1.20;77.00;;;;;;5117802;27;20034;-75
2022/12/10 00:11:39;;;;;;;51.87;27.23;;;1.20;77.00;;;;;;5117551;27;20047;-75
2022/12/10 00:14:06;;;;;;;48.97;26.40;;;1.20;77.10;;;;;;5119099;27;20039;-75
2022/12/10 00:16:33;;;;;;;48.47;28.13;;;1.20;77.10;;;;;;5118756;27;20092;-75
2022/12/10 00:19:00;;;;;;;49.97;28.33;;;1.30;77.10;;;;;;5115946;27;20033;-75
2022/12/10 00:21:30;;;;;;;45.20;26.63;;;1.20;77.00;;;;;;5116929;27;20042;-75
2022/12/10 00:23:57;;;;;;;48.23;27.33;;;1.30;77.10;;;;;;5116442;27;20058;-75
2022/12/10 00:26:25;;;;;;;45.20;26.93;;;1.20;77.00;;;;;;5098504;27;20181;-75
2022/12/10 00:28:52;;;;;;;52.67;28.33;;;1.20;77.10;;;;;;5115888;27;20050;-75
2022/12/10 00:31:24;;;;;;;51.37;29.23;;;1.20;76.90;;;;;;5118606;27;20043;-75
2022/12/10 00:33:50;;;;;;;46.63;25.50;;;1.20;76.90;;;;;;5115988;27;20031;-75
2022/12/10 00:36:21;;;;;;;48.93;28.27;;;1.20;76.70;;;;;;5095702;27;20039;-75
2022/12/10 00:38:48;;;;;;;52.47;29.40;;;1.20;76.70;;;;;;5115900;27;21413;-75
2022/12/10 00:41:14;;;;;;;48.73;27.87;;;1.20;76.80;;;;;;5115287;27;20038;-74
2022/12/10 00:43:41;;;;;;;53.87;29.70;;;1.20;76.80;;;;;;5118069;27;20038;-75
2022/12/10 00:46:08;;;;;;;53.43;28.47;;;1.20;76.70;;;;;;5118218;27;20047;-75
2022/12/10 00:48:34;;;;;;;50.07;28.63;;;1.20;76.60;;;;;;5100173;27;20035;-75
2022/12/10 00:51:00;;;;;;;49.73;28.53;;;1.20;76.60;;;;;;5117715;27;20058;-75
2022/12/10 00:53:27;;;;;;;54.63;28.93;;;1.20;76.50;;;;;;5120045;27;20443;-76
2022/12/10 00:55:55;;;;;;;51.07;28.67;;;1.20;76.50;;;;;;5116141;27;20092;-75
2022/12/10 00:58:21;;;;;;;49.53;27.90;;;1.10;76.40;;;;;;5118508;27;20121;-73
2022/12/10 01:00:47;;;;;;;53.93;28.80;;;1.10;76.30;;;;;;5099051;27;20505;-75
2022/12/10 01:03:13;;;;;;;53.80;30.13;;;1.20;76.50;;;;;;5115100;27;20486;-68
2022/12/10 01:05:39;;;;;;;51.70;28.13;;;1.20;76.50;;;;;;5083363;27;20913;-68
2022/12/10 01:08:05;;;;;;;53.63;27.83;;;1.20;76.50;;;;;;5117619;27;20039;-68
2022/12/10 01:10:31;;;;;;;52.10;28.63;;;1.10;76.40;;;;;;5099383;27;20074;-69
2022/12/10 01:12:56;;;;;;;47.70;27.70;;;1.10;76.40;;;;;;5098439;27;20078;-68
2022/12/10 01:15:22;;;;;;;46.03;28.57;;;1.10;76.40;;;;;;5118849;27;20035;-68
2022/12/10 01:17:48;;;;;;;53.00;30.70;;;1.20;76.40;;;;;;5117934;27;20039;-68
2022/12/10 01:20:13;;;;;;;51.40;29.53;;;1.20;76.50;;;;;;5118551;27;20039;-69
2022/12/10 01:22:39;;;;;;;58.60;31.60;;;1.10;76.40;;;;;;5116751;27;20417;-69
2022/12/10 01:25:05;;;;;;;53.70;30.07;;;1.20;76.30;;;;;;5118340;27;20386;-69
2022/12/10 01:27:30;;;;;;;61.87;31.07;;;1.20;76.20;;;;;;5120074;27;20114;-69
2022/12/10 01:29:56;;;;;;;49.77;28.77;;;1.20;76.20;;;;;;5101363;27;20046;-69
2022/12/10 01:32:22;;;;;;;53.27;28.80;;;1.10;76.10;;;;;;5099589;27;20534;-68
2022/12/10 01:34:47;;;;;;;52.27;29.20;;;1.10;76.10;;;;;;5101389;27;20169;-69
2022/12/10 01:37:13;;;;;;;48.50;27.47;;;1.10;76.20;;;;;;5103923;27;20043;-68
2022/12/10 01:39:39;;;;;;;50.10;28.20;;;1.10;76.20;;;;;;5102342;27;20547;-69
2022/12/10 01:42:05;;;;;;;51.03;28.67;;;1.10;76.30;;;;;;5116649;27;20126;-68
2022/12/10 01:44:50;;;;;;;52.23;28.33;;;1.10;76.30;;;;;;5117467;27;20078;-66
2022/12/10 01:47:16;;;;;;;50.30;28.27;;;1.10;76.30;;;;;;5118107;27;20039;-67
2022/12/10 01:49:42;;;;;;;49.90;28.30;;;1.10;76.40;;;;;;5119293;27;20713;-67
2022/12/10 01:52:10;;;;;;;53.13;28.83;;;1.10;76.30;;;;;;5119025;27;20054;-67
2022/12/10 01:54:39;;;;;;;53.30;30.40;;;1.10;76.30;;;;;;5116475;27;20129;-67
2022/12/10 01:57:09;;;;;;;52.67;28.87;;;1.10;76.20;;;;;;5118200;27;20053;-67
2022/12/10 01:59:36;;;;;;;51.30;28.33;;;1.10;76.20;;;;;;5120270;27;20031;-67
2022/12/10 02:02:26;;;;;;;54.57;30.00;;;1.10;76.30;;;;;;5102734;27;20070;-67
2022/12/10 02:05:27;;;;;;;55.73;29.53;;;1.00;76.20;;;;;;5121498;27;20427;-67
2022/12/10 02:07:58;;;;;;;54.83;29.83;;;1.00;76.10;;;;;;5120895;27;20038;-67
2022/12/10 02:10:29;;;;;;;54.37;29.77;;;1.00;76.00;;;;;;5122237;27;20041;-67
2022/12/10 02:13:04;;;;;;;54.27;29.73;;;1.00;76.00;;;;;;5105424;27;20099;-68
2022/12/10 02:15:40;;;;;;;48.93;27.50;;;1.00;76.10;;;;;;5122834;27;20046;-67
2022/12/10 02:18:11;;;;;;;48.20;28.17;;;1.00;76.20;;;;;;5122146;27;20050;-67
2022/12/10 02:20:50;;;;;;;53.10;29.53;;;1.00;76.30;;;;;;5121568;27;20049;-68
2022/12/10 02:23:27;;;;;;;56.00;30.57;;;1.00;76.30;;;;;;5121259;27;20030;-67
2022/12/10 02:26:06;;;;;;;51.93;28.57;;;1.00;76.30;;;;;;5119985;27;20026;-67
2022/12/10 02:29:12;;;;;;;53.63;29.23;;;0.90;76.10;;;;;;5105417;27;20410;-67
2022/12/10 02:31:40;;;;;;;;;;;0.90;76.00;;;;;;5101863;27;20047;-68
2022/12/10 02:34:07;;;;;;;56.27;29.57;;;0.90;75.90;;;;;;5119893;27;21456;-68
2022/12/10 02:36:37;;;;;;;50.70;28.20;;;0.90;76.10;;;;;;5120318;27;20030;-67
2022/12/10 02:39:07;;;;;;;49.70;27.73;;;0.80;76.20;;;;;;5119471;27;20125;-68
2022/12/10 02:41:41;;;;;;;51.47;28.57;;;0.90;76.20;;;;;;5120386;27;20067;-67
2022/12/10 02:44:11;;;;;;;52.28;28.02;;;0.80;76.20;;;;;;5120744;27;20359;-67
2022/12/10 02:46:39;;;;;;;52.67;28.67;;;0.80;76.20;;;;;;5121744;27;21394;-67
2022/12/10 02:49:06;;;;;;;54.90;29.83;;;0.80;76.30;;;;;;5121580;27;20389;-67
2022/12/10 02:51:32;;;;;;;57.10;31.07;;;0.80;76.30;;;;;;5119232;27;20043;-67
2022/12/10 02:54:04;;;;;;;56.93;30.17;;;0.80;76.40;;;;;;5123583;27;20059;-67
2022/12/10 02:56:47;;;;;;;54.33;29.30;;;0.80;76.40;;;;;;5120040;27;20030;-67
2022/12/10 02:59:19;;;;;;;53.53;28.63;;;0.80;76.40;;;;;;5120147;27;20042;-67
2022/12/10 03:02:03;;;;;;;51.53;29.17;;;0.80;76.40;;;;;;5118937;27;20078;-67
2022/12/10 03:04:52;;;;;;;53.53;30.33;;;0.80;76.50;;;;;;5120628;27;20070;-67
2022/12/10 03:07:44;;;;;;;60.00;29.30;;;0.70;76.40;;;;;;5123378;27;20045;-67
2022/12/10 03:10:20;;;;;;;57.40;30.53;;;0.80;76.40;;;;;;5083691;27;20095;-67
2022/12/10 03:12:59;;;;;;;59.27;31.20;;;0.80;76.50;;;;;;5103527;27;20047;-67
2022/12/10 03:15:27;;;;;;;57.80;29.10;;;0.80;76.50;;;;;;5123638;27;20035;-67
2022/12/10 03:17:55;;;;;;;59.83;31.37;;;0.70;76.40;;;;;;5118377;27;20043;-67
2022/12/10 03:20:24;;;;;;;56.23;29.83;;;0.70;76.40;;;;;;5133700;27;20039;-67
2022/12/10 03:22:50;;;;;;;55.37;30.10;;;0.70;76.80;;;;;;5124268;27;20053;-67
2022/12/10 03:25:20;;;;;;;54.20;30.53;;;0.70;76.40;;;;;;5107617;27;20039;-67
2022/12/10 03:27:52;;;;;;;58.57;31.40;;;0.70;76.40;;;;;;5120940;27;20095;-74
2022/12/10 03:30:18;;;;;;;54.83;30.13;;;0.70;76.40;;;;;;5126523;27;20051;-74
2022/12/10 03:32:44;;;;;;;55.77;29.60;;;0.70;76.40;;;;;;5116505;27;20049;-74
2022/12/10 03:35:12;;;;;;;54.37;29.23;;;0.70;76.40;;;;;;5102981;27;20093;-74
2022/12/10 03:37:39;;;;;;;55.77;28.90;;;0.70;76.40;;;;;;5127619;27;20782;-74
2022/12/10 03:40:06;;;;;;;57.50;30.00;;;0.70;76.40;;;;;;5117634;27;20067;-74
2022/12/10 03:42:34;;;;;;;59.80;30.50;;;0.70;76.50;;;;;;5100495;27;20035;-75
2022/12/10 03:45:00;;;;;;;56.27;30.90;;;0.70;76.60;;;;;;5106235;27;20035;-75
2022/12/10 03:47:25;;;;;;;53.33;29.37;;;0.70;76.60;;;;;;5116551;27;20035;-75
2022/12/10 03:49:51;;;;;;;52.00;28.50;;;0.70;76.50;;;;;;5093945;27;20104;-74
2022/12/10 03:52:17;;;;;;;55.60;29.53;;;0.70;76.40;;;;;;5128246;27;20039;-75
2022/12/10 03:54:42;;;;;;;53.17;30.07;;;0.60;76.40;;;;;;5125043;27;20031;-75
2022/12/10 03:57:08;;;;;;;58.40;29.93;;;0.70;76.50;;;;;;5125148;27;20039;-74
2022/12/10 03:59:34;;;;;;;53.07;30.37;;;0.60;76.50;;;;;;5133054;27;20035;-74
2022/12/10 04:01:59;;;;;;;54.27;29.60;;;0.60;76.50;;;;;;5116490;27;20039;-74
2022/12/10 04:04:25;;;;;;;54.43;29.50;;;0.60;76.50;;;;;;5122628;27;20070;-75
2022/12/10 04:06:51;;;;;;;62.50;32.90;;;0.60;76.50;;;;;;5129809;27;20050;-75
2022/12/10 04:09:16;;;;;;;58.47;31.40;;;0.60;76.30;;;;;;5112448;27;20042;-74
2022/12/10 04:11:43;;;;;;;59.47;29.77;;;0.60;76.20;;;;;;5110114;27;20090;-75
2022/12/10 04:16:58;;;;;;;56.10;30.13;;;0.50;76.10;;;;;;5123706;27;20065;-75
2022/12/10 04:19:24;;;;;;;54.67;30.03;;;0.50;76.50;;;;;;5109710;27;20063;-75
2022/12/10 04:27:29;;;;;;;55.97;29.97;;;0.40;76.20;;;;;;5124711;27;20046;-76
2022/12/10 04:29:56;;;;;;;55.53;30.77;;;0.40;76.50;;;;;;5117971;27;20513;-75
2022/12/10 04:32:24;;;;;;;54.50;30.73;;;0.40;76.50;;;;;;5107346;27;20050;-76
2022/12/10 04:34:50;;;;;;;59.17;30.83;;;0.50;76.60;;;;;;5101658;27;20512;-75
2022/12/10 04:37:16;;;;;;;56.97;31.33;;;0.40;76.70;;;;;;5124180;27;20043;-76
2022/12/10 04:39:42;;;;;;;60.20;31.67;;;0.50;76.80;;;;;;5130798;27;20039;-75
2022/12/10 04:42:08;;;;;;;59.50;30.90;;;0.50;76.80;;;;;;5100559;27;20367;-76
2022/12/10 04:44:34;;;;;;;64.10;33.43;;;0.50;76.90;;;;;;5104359;27;20114;-77
2022/12/10 04:47:00;;;;;;;61.60;32.17;;;0.50;77.00;;;;;;5115538;27;20039;-76
2022/12/10 04:49:26;;;;;;;72.87;35.17;;;0.50;77.00;;;;;;5116149;27;20554;-77
2022/12/10 04:51:52;;;;;;;68.43;33.80;;;0.50;77.00;;;;;;5114547;27;20043;-69
2022/12/10 04:54:19;;;;;;;64.80;32.33;;;0.60;77.10;;;;;;5121549;27;20491;-69
2022/12/10 04:56:45;;;;;;;69.47;34.50;;;0.60;77.20;;;;;;5125981;27;20045;-77
2022/12/10 04:59:11;;;;;;;67.07;33.33;;;0.60;77.20;;;;;;5118974;27;20114;-77
2022/12/10 05:01:37;;;;;;;60.03;31.17;;;0.60;77.20;;;;;;5124923;27;20058;-76
2022/12/10 05:04:05;;;;;;;64.83;33.27;;;0.60;77.30;;;;;;5122511;27;20505;-76
2022/12/10 05:06:31;;;;;;;64.57;33.67;;;0.70;77.40;;;;;;5098598;27;20043;-77
2022/12/10 05:08:57;;;;;;;69.13;35.40;;;0.70;77.50;;;;;;5120212;27;20079;-76
2022/12/10 05:11:26;;;;;;;66.53;33.70;;;0.70;77.50;;;;;;5115341;28;20435;-76
2022/12/10 05:13:53;;;;;;;67.43;32.77;;;0.70;77.60;;;;;;5107976;28;20626;-76
2022/12/10 05:16:21;;;;;;;63.40;33.13;;;0.70;77.50;;;;;;5116993;28;20043;-77
2022/12/10 05:18:47;;;;;;;65.67;31.83;;;0.70;77.50;;;;;;5099390;28;20151;-76
2022/12/10 05:21:15;;;;;;;57.10;29.87;;;0.80;77.60;;;;;;5098924;28;20130;-76
2022/12/10 05:23:43;;;;;;;59.80;32.40;;;0.80;77.70;;;;;;5122457;28;20027;-76
2022/12/10 05:26:10;;;;;;;56.07;29.47;;;0.80;77.70;;;;;;5112662;28;20440;-76
2022/12/10 05:28:45;;;;;;;65.00;30.73;;;1.00;77.80;;;;;;5118488;28;20042;-77
2022/12/10 05:31:16;;;;;;;80.80;31.87;;;0.90;77.70;;;;;;5101787;28;20035;-77
2022/12/10 05:33:42;;;;;;;60.17;31.13;;;0.80;77.60;;;;;;5130758;27;20036;-76
2022/12/10 05:36:11;;;;;;;55.93;30.70;;;0.90;77.60;;;;;;5130837;27;20039;-76
2022/12/10 05:38:37;;;;;;;55.13;29.70;;;0.90;77.60;;;;;;5110889;27;20135;-76
2022/12/10 05:41:04;;;;;;;51.73;28.20;;;0.90;77.60;;;;;;5119229;27;20043;-77
2022/12/10 05:43:30;;;;;;;55.60;29.70;;;0.90;77.70;;;;;;5119790;27;20062;-77
2022/12/10 05:46:05;;;;;;;51.13;28.27;;;1.00;77.80;;;;;;5123460;27;20074;-77
2022/12/10 05:48:32;;;;;;;55.07;27.20;;;1.00;77.90;;;;;;5111679;27;20431;-77
2022/12/10 05:50:58;;;;;;;54.00;28.13;;;1.00;77.80;;;;;;5107721;27;20024;-77
2022/12/10 05:53:24;;;;;;;58.97;29.03;;;1.00;77.80;;;;;;5131532;27;20045;-77
2022/12/10 05:55:58;;;;;;;50.50;28.70;;;1.00;77.80;;;;;;5129706;27;20118;-77
2022/12/10 05:58:24;;;;;;;52.28;29.20;;;1.10;77.80;;;;;;5121679;27;20039;-77
2022/12/10 06:00:49;;;;;;;53.97;28.87;;;1.10;77.80;;;;;;5128759;27;20055;-77
2022/12/10 06:03:15;;;;;;;49.40;27.97;;;1.10;77.80;;;;;;5104547;27;20038;-76
2022/12/10 06:05:41;;;;;;;47.93;27.20;;;1.10;77.80;;;;;;5127212;27;20092;-77
2022/12/10 06:08:07;;;;;;;50.53;28.47;;;1.10;77.80;;;;;;5125284;27;20162;-77
2022/12/10 06:10:36;;;;;;;50.83;26.83;;;1.10;77.80;;;;;;5111704;27;20031;-76
2022/12/10 06:13:03;;;;;;;55.07;28.10;;;1.10;77.80;;;;;;5126559;27;20039;-76
2022/12/10 06:15:29;;;;;;;50.77;27.13;;;1.20;77.90;;;;;;5130950;27;20027;-77
2022/12/10 06:17:55;;;;;;;45.90;27.77;;;1.20;77.80;;;;;;5122294;27;20054;-77
2022/12/10 06:20:22;;;;;;;49.17;27.03;;;1.20;77.70;;;;;;5125786;27;20055;-77
2022/12/10 06:22:47;;;;;;;49.40;25.67;;;1.20;77.60;;;;;;5126976;27;20766;-77
2022/12/10 06:25:13;;;;;;;45.00;25.70;;;1.20;77.50;;;;;;5111115;27;20046;-77
2022/12/10 06:27:39;;;;;;;50.13;28.80;;;1.20;77.40;;;;;;5115874;27;20031;-77
2022/12/10 06:30:05;;;;;;;50.27;26.50;;;1.20;77.40;;;;;;5118865;27;20050;-77
2022/12/10 06:32:31;;;;;;;43.23;24.03;;;1.20;77.40;;;;;;5118344;27;20088;-76
2022/12/10 06:34:57;;;;;;;43.50;25.30;;;1.20;77.50;;;;;;5118163;27;20035;-77
2022/12/10 06:37:22;;;;;;;62.67;25.80;;;1.20;77.60;;;;;;5120109;27;20042;-76
2022/12/10 06:39:51;;;;;;;41.33;24.27;;;1.10;77.50;;;;;;5129790;27;20043;-77
2022/12/10 06:42:17;;;;;;;42.43;24.37;;;1.10;77.30;;;;;;5127771;27;20057;-77
2022/12/10 06:44:42;;;;;;;41.10;24.43;;;1.10;77.30;;;;;;5117432;27;20118;-77
2022/12/10 06:47:08;;;;;;;37.97;22.27;;;1.10;77.40;;;;;;5122669;27;20050;-77
2022/12/10 06:49:34;;;;;;;48.87;24.87;;;1.10;77.50;;;;;;5121465;27;20077;-76
2022/12/10 06:51:59;;;;;;;46.10;24.80;;;1.00;77.50;;;;;;5127944;27;20047;-76
2022/12/10 06:54:25;;;;;;;69.20;25.20;;;1.00;77.40;;;;;;5124966;27;20172;-76
2022/12/10 06:56:51;;;;;;;53.93;26.47;;;1.00;77.30;;;;;;5110011;27;20406;-76
2022/12/10 06:59:16;;;;;;;61.37;24.23;;;1.00;77.10;;;;;;5122277;27;20067;-76
2022/12/10 07:01:42;;;;;;;45.37;23.50;;;0.90;76.90;;;;;;5099943;27;20035;-76
2022/12/10 07:04:08;;;;;;;43.93;23.87;;;0.80;76.70;;;;;;5108497;27;20039;-77
2022/12/10 07:06:34;;;;;;;44.40;25.67;;;0.80;77.00;;;;;;5102762;27;20386;-76
2022/12/10 07:09:00;;;;;;;46.47;23.97;;;0.80;77.30;;;;;;5124318;27;20046;-76
2022/12/10 07:11:25;;;;;;;45.67;25.27;;;0.80;77.60;;;;;;5100051;27;20051;-76
2022/12/10 07:13:51;;;;;;;39.53;22.30;;;0.80;77.90;;;;;;5109755;27;20089;-77
2022/12/10 07:16:21;;;;;;;42.17;22.17;;;0.80;78.10;;;;;;5117597;27;20081;-75
2022/12/10 07:18:48;;;;;;;37.63;22.33;;;0.80;78.20;;;;;;5124648;27;20504;-75
2022/12/10 07:21:27;;;;;;;49.40;23.53;;;0.90;78.30;;;;;;5118943;27;20039;-75
2022/12/10 07:23:57;;;;;;;44.17;23.33;;;0.90;78.30;;;;;;5120349;27;20122;-76
2022/12/10 07:26:24;;;;;;;44.93;22.17;;;0.90;78.60;;;;;;5117780;27;20043;-75
2022/12/10 07:28:50;;;;;;;39.70;22.47;;;0.90;78.10;;;;;;5125141;27;20166;-76
2022/12/10 07:31:15;;;;;;;41.93;23.60;;;0.90;78.10;;;;;;5108005;27;20118;-76
2022/12/10 07:33:41;;;;;;;39.97;22.77;;;0.90;77.90;;;;;;5121873;27;20031;-75
2022/12/10 07:36:11;;;;;;;41.97;22.80;;;0.90;77.80;;;;;;5114773;27;20051;-76
2022/12/10 07:38:37;;;;;;;39.63;21.40;;;0.90;77.90;;;;;;5130195;27;20127;-76
2022/12/10 07:41:09;;;;;;;41.17;21.83;;;0.90;77.90;;;;;;5104544;27;20106;-76
2022/12/10 07:43:36;;;;;;;41.17;22.07;;;0.90;78.00;;;;;;5119574;27;20039;-76
2022/12/10 07:46:10;;;;;;;41.53;22.77;;;0.90;78.00;;;;;;5105857;27;20118;-72
2022/12/10 07:48:37;;;;;;;39.88;21.77;;;0.90;78.50;;;;;;5116653;27;20159;-70
2022/12/10 07:51:03;;;;;;;46.93;24.53;;;0.90;78.10;;;;;;5118988;27;20070;-76
2022/12/10 07:53:29;;;;;;;43.63;21.97;;;0.90;78.00;;;;;;5107951;27;20122;-77
2022/12/10 07:55:55;;;;;;;39.57;22.23;;;1.00;78.10;;;;;;5103862;27;20067;-70
2022/12/10 07:58:21;;;;;;;44.07;23.67;;;1.00;78.10;;;;;;5131600;27;20505;-69
2022/12/10 08:00:47;;;;;;;46.37;23.90;;;1.00;78.10;;;;;;5102862;27;20225;-69
2022/12/10 08:03:12;;;;;;;47.70;22.70;;;1.00;78.10;;;;;;5124299;27;20190;-69
2022/12/10 08:05:38;;;;;;;50.17;24.80;;;1.00;77.90;;;;;;5115888;27;20050;-69
2022/12/10 08:08:04;;;;;;;40.93;22.17;;;1.00;77.80;;;;;;5118905;27;20035;-68
2022/12/10 08:10:34;;;;;;;41.37;21.97;;;1.00;77.50;;;;;;5102789;27;20375;-69
2022/12/10 08:12:59;;;;;;;42.23;23.13;;;0.90;77.50;;;;;;5130799;27;20055;-68
2022/12/10 08:15:25;;;;;;;43.23;23.23;;;0.90;77.50;;;;;;5129067;27;20046;-69
2022/12/10 08:17:51;;;;;;;41.90;22.83;;;0.90;77.60;;;;;;5128348;27;20031;-69
2022/12/10 08:20:16;;;;;;;45.93;24.90;;;1.00;77.80;;;;;;5103615;27;20035;-69
2022/12/10 08:22:42;;;;;;;46.17;24.70;;;1.00;77.90;;;;;;5121640;27;21400;-70
2022/12/10 08:25:08;;;;;;;42.23;23.50;;;1.00;78.00;;;;;;5132539;27;20087;-70
2022/12/10 08:27:33;;;;;;;43.23;24.63;;;1.00;77.90;;;;;;5130617;27;20054;-68
2022/12/10 08:29:59;;;;;;;54.03;24.63;;;1.30;78.10;;;;;;5123479;27;20031;-68
2022/12/10 08:32:25;;;;;;;39.87;23.77;;;1.00;78.00;;;;;;5112184;27;20474;-68
2022/12/10 08:34:50;;;;;;;58.67;27.20;;;1.00;77.90;;;;;;5116667;27;20502;-68
2022/12/10 08:37:16;;;;;;;41.13;22.90;;;1.00;77.90;;;;;;5067714;27;20035;-68
2022/12/10 08:39:42;;;;;;;55.50;24.77;;;1.10;77.80;;;;;;5107671;27;20492;-68
2022/12/10 08:42:08;;;;;;;52.57;25.13;;;1.10;77.80;;;;;;5123077;27;20118;-68
2022/12/10 08:44:33;;;;;;;52.97;24.90;;;1.10;77.60;;;;;;5121406;27;20035;-69
2022/12/10 08:46:59;;;;;;;60.70;26.37;;;1.00;77.50;;;;;;5117898;27;20065;-67
2022/12/10 08:49:25;;;;;;;53.83;26.73;;;1.10;77.50;;;;;;5094391;27;20156;-67
2022/12/10 08:51:50;;;;;;;49.03;25.50;;;1.00;77.30;;;;;;5125407;27;20039;-67
2022/12/10 08:54:16;;;;;;;42.43;23.33;;;1.00;77.30;;;;;;5116550;27;20422;-67
2022/12/10 08:56:42;;;;;;;47.23;24.73;;;1.00;77.30;;;;;;5116132;27;20027;-68
2022/12/10 08:59:08;;;;;;;55.77;27.77;;;1.00;77.50;;;;;;5101053;28;20139;-67
2022/12/10 09:01:33;;;;;;;45.27;23.93;;;1.00;77.70;;;;;;5095395;28;20035;-67
2022/12/10 09:04:00;;;;;;;58.00;27.27;;;1.00;77.70;;;;;;5129531;27;20034;-68
2022/12/10 09:06:27;;;;;;;46.40;23.83;;;1.00;78.00;;;;;;5123101;27;20417;-68
2022/12/10 09:08:53;;;;;;;47.00;24.13;;;1.00;77.60;;;;;;5080740;28;21671;-68
2022/12/10 09:11:25;;;;;;;53.47;25.40;;;1.00;77.60;;;;;;5118754;28;20383;-68
2022/12/10 09:13:51;;;;;;;48.50;24.97;;;1.10;77.80;;;;;;5116639;28;20072;-68
2022/12/10 09:16:17;;;;;;;49.07;25.00;;;1.50;78.00;;;;;;5114447;28;20039;-68
2022/12/10 09:18:43;;;;;;;51.00;27.37;;;1.10;77.70;;;;;;5130008;28;20420;-68
2022/12/10 09:21:14;;;;;;;48.67;25.57;;;1.10;77.80;;;;;;5130068;28;20046;-68
2022/12/10 09:23:40;;;;;;;51.83;26.70;;;1.10;77.90;;;;;;5122505;28;20517;-68
2022/12/10 09:26:12;;;;;;;50.83;25.37;;;1.10;77.90;;;;;;5126237;28;20043;-68
2022/12/10 09:28:38;;;;;;;50.60;27.47;;;1.10;77.80;;;;;;5124561;28;20034;-67
2022/12/10 09:31:05;;;;;;;52.70;26.27;;;1.10;77.90;;;;;;5123590;28;20035;-68
2022/12/10 09:33:31;;;;;;;55.90;26.90;;;1.20;78.00;;;;;;5125499;28;20081;-67
2022/12/10 09:35:57;;;;;;;44.80;24.40;;;1.20;78.10;;;;;;5120328;28;20043;-68
2022/12/10 09:38:23;;;;;;;48.33;25.27;;;1.20;78.00;;;;;;5127101;28;20031;-68
2022/12/10 09:41:02;;;;;;;49.60;25.23;;;1.20;78.10;;;;;;5115155;28;20413;-67
2022/12/10 09:43:46;;;;;;;51.40;25.83;;;1.20;78.10;;;;;;5119318;28;20031;-68
2022/12/10 09:46:11;;;;;;;47.60;24.70;;;1.30;78.20;;;;;;5116522;28;20601;-68
2022/12/10 09:49:06;;;;;;;55.23;25.97;;;1.30;78.10;;;;;;5118664;28;20046;-68
2022/12/10 09:51:36;;;;;;;58.22;25.48;;;1.30;78.00;;;;;;5118068;28;20533;-68
2022/12/10 09:54:10;;;;;;;46.73;24.30;;;1.30;77.90;;;;;;5129802;28;20043;-76
2022/12/10 09:56:39;;;;;;;43.38;23.70;;;1.30;78.00;;;;;;5130637;28;20070;-76
2022/12/10 09:59:40;;;;;;;53.03;24.70;;;1.40;78.00;;;;;;5111992;28;20039;-75
2022/12/10 10:02:21;;;;;;;50.10;23.73;;;1.40;78.00;;;;;;5102902;28;20491;-75
2022/12/10 10:04:48;;;;;;;51.73;25.17;;;1.40;78.00;;;;;;5114472;28;20050;-75
2022/12/10 10:07:29;;;;;;;43.33;23.00;;;1.40;78.00;;;;;;5129330;28;20035;-76
2022/12/10 10:10:06;;;;;;;49.87;24.27;;;1.40;78.00;;;;;;5117832;28;20100;-75
2022/12/10 10:12:34;;;;;;;45.63;23.97;;;1.40;77.90;;;;;;5122187;28;20069;-76
2022/12/10 10:15:12;;;;;;;43.30;22.60;;;1.40;77.90;;;;;;5126117;28;20051;-75
2022/12/10 10:17:38;;;;;;;44.00;22.80;;;1.40;78.00;;;;;;5131028;28;20039;-75
2022/12/10 10:20:05;;;;;;;45.77;23.60;;;1.40;77.90;;;;;;5110435;27;20043;-75
2022/12/10 10:22:31;;;;;;;46.43;25.17;;;1.40;77.90;;;;;;5121578;27;20603;-75
2022/12/10 10:24:57;;;;;;;47.60;24.43;;;1.40;78.00;;;;;;5118424;27;20050;-68
2022/12/10 10:27:28;;;;;;;60.13;25.37;;;1.50;78.10;;;;;;5104946;27;20039;-67
2022/12/10 10:29:57;;;;;;;48.07;24.07;;;1.40;77.90;;;;;;5119006;27;20042;-67
2022/12/10 10:32:51;;;;;;;43.17;23.47;;;1.40;77.80;;;;;;5123224;27;20032;-67
2022/12/10 10:35:32;;;;;;;47.43;23.17;;;1.40;77.70;;;;;;5123207;27;20042;-67
2022/12/10 10:38:06;;;;;;;46.40;24.37;;;1.40;77.70;;;;;;5119476;27;20414;-67
2022/12/10 10:40:37;;;;;;;45.70;25.38;;;1.40;77.90;;;;;;5116124;27;20087;-68
2022/12/10 10:43:03;;;;;;;51.97;24.90;;;1.40;77.90;;;;;;5116705;27;20532;-67
2022/12/10 10:45:52;;;;;;;48.40;24.13;;;1.40;78.00;;;;;;5119267;27;20035;-67
2022/12/10 10:48:19;;;;;;;61.57;27.90;;;1.40;78.00;;;;;;5116057;27;20039;-67
2022/12/10 10:50:49;;;;;;;49.60;25.30;;;1.40;77.80;;;;;;5118286;27;20054;-67
2022/12/10 10:53:31;;;;;;;49.90;23.83;;;1.40;77.80;;;;;;5117820;27;20386;-67
2022/12/10 10:56:04;;;;;;;49.87;25.43;;;1.30;77.90;;;;;;5110074;27;20031;-67
2022/12/10 10:58:30;;;;;;;45.70;23.57;;;1.40;78.10;;;;;;5117665;27;20039;-67
2022/12/10 11:01:06;;;;;;;61.47;27.43;;;1.40;78.20;;;;;;5115947;27;20054;-67
2022/12/10 11:03:34;;;;;;;58.07;27.43;;;1.40;78.40;;;;;;5109835;27;20485;-67
2022/12/10 11:06:04;;;;;;;46.97;24.10;;;1.40;78.10;;;;;;5116457;27;20043;-67
2022/12/10 11:08:31;;;;;;;54.17;26.70;;;1.40;78.10;;;;;;5125103;27;20038;-67
2022/12/10 11:11:04;;;;;;;52.13;25.60;;;1.40;78.10;;;;;;5143538;27;20035;-67
2022/12/10 11:13:37;;;;;;;54.17;26.77;;;1.40;78.30;;;;;;5104428;27;20111;-67
2022/12/10 11:16:20;;;;;;;57.33;26.83;;;1.50;78.40;;;;;;5119892;27;20069;-67
2022/12/10 11:19:05;;;;;;;58.60;28.17;;;1.50;78.30;;;;;;5120093;27;21250;-67
2022/12/10 11:21:33;;;;;;;47.60;22.98;;;1.40;78.20;;;;;;5121811;27;20047;-67
2022/12/10 11:24:03;;;;;;;63.10;28.53;;;1.50;78.60;;;;;;5122077;27;20414;-67
2022/12/10 11:27:01;;;;;;;64.97;29.63;;;1.40;78.20;;;;;;5122004;27;20058;-67
2022/12/10 11:29:44;;;;;;;55.27;26.87;;;1.50;78.30;;;;;;5119984;27;20035;-67
2022/12/10 11:32:38;;;;;;;55.60;26.50;;;1.50;78.30;;;;;;5118311;27;20374;-67
2022/12/10 11:35:20;;;;;;;57.43;27.37;;;1.50;78.40;;;;;;5116851;27;20451;-67
2022/12/10 11:38:15;;;;;;;55.40;28.23;;;1.50;78.40;;;;;;5119474;27;20047;-67
2022/12/10 11:40:52;;;;;;;49.90;27.15;;;1.50;78.70;;;;;;5108332;27;20478;-67
2022/12/10 11:43:30;;;;;;;56.77;28.03;;;1.60;78.80;;;;;;5097824;27;20051;-67
2022/12/10 11:46:16;;;;;;;54.63;27.70;;;1.60;78.90;;;;;;5119132;27;20396;-67
2022/12/10 11:49:03;;;;;;;54.53;26.10;;;1.70;79.00;;;;;;5115829;27;20114;-67
2022/12/10 11:52:01;;;;;;;50.23;26.33;;;1.70;78.90;;;;;;5117454;27;20031;-67
2022/12/10 11:54:45;;;;;;;52.83;26.67;;;1.80;79.00;;;;;;5119632;27;20102;-67
2022/12/10 11:57:27;;;;;;;54.43;26.47;;;1.80;79.00;;;;;;5117095;27;20046;-67
2022/12/10 12:00:04;;;;;;;51.37;26.33;;;1.90;78.90;;;;;;5119011;27;20084;-67
2022/12/10 12:02:44;;;;;;;47.93;25.30;;;1.90;78.70;;;;;;5120153;27;20031;-67
2022/12/10 12:05:18;;;;;;;50.87;25.73;;;1.90;78.60;;;;;;5102527;27;20076;-67
2022/12/10 12:08:13;;;;;;;50.77;24.80;;;2.00;78.50;;;;;;5110393;27;20040;-67
2022/12/10 12:10:58;;;;;;;45.30;25.20;;;2.00;78.50;;;;;;5117601;27;20081;-67
2022/12/10 12:13:40;;;;;;;53.90;27.98;;;2.00;78.40;;;;;;5091642;27;20104;-67
2022/12/10 12:16:25;;;;;;;50.87;25.53;;;2.10;78.50;;;;;;5112971;27;20405;-67
2022/12/10 12:18:55;;;;;;;;;;;2.10;78.40;;;;;;5109362;27;20097;-68
2022/12/10 12:21:21;;;;;;;46.33;23.17;;;2.10;78.10;;;;;;5093705;27;19923;-68
2022/12/10 12:24:21;;;;;;;48.83;26.40;;;2.10;78.10;;;;;;5100827;28;20039;-68
2022/12/10 12:27:02;;;;;;;51.30;25.23;;;2.10;78.00;;;;;;5104759;27;20058;-68
2022/12/10 12:29:41;;;;;;;51.37;26.03;;;2.10;78.00;;;;;;5108178;27;20036;-68
2022/12/10 12:32:20;;;;;;;60.00;28.33;;;2.10;77.90;;;;;;5108577;27;20508;-68
2022/12/10 12:35:14;;;;;;;53.87;25.97;;;2.20;77.80;;;;;;5104387;27;20055;-69
2022/12/10 12:37:46;;;;;;;51.87;26.57;;;2.10;77.40;;;;;;5099866;27;20186;-68
2022/12/10 12:40:32;;;;;;;51.93;26.23;;;2.10;77.60;;;;;;5090634;27;20054;-68
2022/12/10 12:43:02;;;;;;;53.17;25.63;;;2.10;77.60;;;;;;5104182;27;20567;-68
2022/12/10 12:45:55;;;;;;;55.67;27.17;;;2.10;77.60;;;;;;5102683;27;20045;-68
2022/12/10 12:48:32;;;;;;;55.60;28.13;;;2.20;77.50;;;;;;5105771;27;20068;-75
2022/12/10 12:51:00;;;;;;;53.90;27.47;;;2.10;77.50;;;;;;5109254;27;20043;-74
2022/12/10 12:53:26;;;;;;;54.43;27.43;;;2.20;77.60;;;;;;5110752;27;20053;-74
2022/12/10 12:56:17;;;;;;;55.43;27.57;;;2.20;77.60;;;;;;5107481;27;20043;-75
2022/12/10 12:59:03;;;;;;;56.40;28.57;;;2.10;77.70;;;;;;5082896;28;20127;-75
2022/12/10 13:01:56;;;;;;;56.23;27.40;;;2.20;77.80;;;;;;5092828;27;20071;-74
2022/12/10 13:04:23;;;;;;;59.93;30.23;;;2.30;77.90;;;;;;5088098;27;20035;-74